createdAt,value
2018-09-13T00:00:49.987Z,95.47
2018-09-13T00:03:18.902Z,95.99
2018-09-13T00:05:47.858Z,95.70
2018-09-13T00:08:16.724Z,95.95
2018-09-13T00:10:45.672Z,95.27
2018-09-13T00:13:14.376Z,95.56
2018-09-13T00:15:43.352Z,95.07
2018-09-13T00:18:12.813Z,95.50
2018-09-13T00:20:41.828Z,95.31
2018-09-13T00:23:10.572Z,95.10
2018-09-13T00:25:39.281Z,95.54
2018-09-13T00:28:08.219Z,96.14
2018-09-13T00:30:37.735Z,96.49
2018-09-13T00:33:07.034Z,96.99
2018-09-13T00:35:36.218Z,97.37
2018-09-13T00:38:05.404Z,97.39
2018-09-13T00:40:34.563Z,97.01
2018-09-13T00:43:03.583Z,97.15
2018-09-13T00:45:32.377Z,96.88
2018-09-13T00:48:02.313Z,96.71
2018-09-13T00:50:32.302Z,96.76
2018-09-13T00:53:01.159Z,95.78
2018-09-13T00:55:30.112Z,95.39
2018-09-13T00:57:58.787Z,95.82
2018-09-13T01:00:27.486Z,96.15
2018-09-13T01:02:56.616Z,96.83
2018-09-13T01:05:26.263Z,96.46
2018-09-13T01:07:55.098Z,96.72
2018-09-13T01:10:23.951Z,96.68
2018-09-13T01:12:52.928Z,96.24
2018-09-13T01:15:21.853Z,96.91
2018-09-13T01:17:51.083Z,96.09
2018-09-13T01:20:20.077Z,95.52
2018-09-13T01:22:49.461Z,95.92
2018-09-13T01:25:18.829Z,96.30
2018-09-13T01:27:47.849Z,96.25
2018-09-13T01:30:17.071Z,96.65
2018-09-13T01:32:46.337Z,96.06
2018-09-13T01:35:15.797Z,96.44
2018-09-13T01:37:44.857Z,95.27
2018-09-13T01:40:13.934Z,95.52
2018-09-13T01:42:43.378Z,94.99
2018-09-13T01:45:12.279Z,95.23
2018-09-13T01:47:41.109Z,95.40
2018-09-13T01:50:09.895Z,96.03
2018-09-13T01:52:39.012Z,95.39
2018-09-13T01:55:09.299Z,95.79
2018-09-13T01:57:38.563Z,95.82
2018-09-13T02:00:08.728Z,95.64
2018-09-13T02:02:37.950Z,96.16
2018-09-13T02:05:07.190Z,96.08
2018-09-13T02:07:36.814Z,96.33
2018-09-13T02:10:06.053Z,96.57
2018-09-13T02:12:34.888Z,96.59
2018-09-13T02:15:03.729Z,96.68
2018-09-13T02:17:33.328Z,96.92
2018-09-13T02:20:02.533Z,96.16
2018-09-13T02:22:31.863Z,96.31
2018-09-13T02:25:00.512Z,95.97
2018-09-13T02:27:29.256Z,96.01
2018-09-13T02:29:58.618Z,95.99
2018-09-13T02:32:28.584Z,96.39
2018-09-13T02:34:57.843Z,96.55
2018-09-13T02:37:26.814Z,96.13
2018-09-13T02:39:56.294Z,96.31
2018-09-13T02:42:25.339Z,96.39
2018-09-13T02:44:54.880Z,97.25
2018-09-13T02:47:23.698Z,97.57
2018-09-13T02:49:52.358Z,98.03
2018-09-13T02:52:21.344Z,98.53
2018-09-13T02:54:49.962Z,98.17
2018-09-13T02:57:20.002Z,97.94
2018-09-13T02:59:49.228Z,97.64
2018-09-13T03:02:18.277Z,97.76
2018-09-13T03:04:47.183Z,97.61
2018-09-13T03:07:16.500Z,98.03
2018-09-13T03:09:45.131Z,98.71
2018-09-13T03:12:13.884Z,98.74
2018-09-13T03:14:43.073Z,98.45
2018-09-13T03:17:11.824Z,98.36
2018-09-13T03:19:40.999Z,98.60
2018-09-13T03:22:09.743Z,98.71
2018-09-13T03:24:38.424Z,97.88
2018-09-13T03:27:07.579Z,97.53
2018-09-13T03:29:36.755Z,97.65
2018-09-13T03:32:05.787Z,97.93
2018-09-13T03:34:35.485Z,97.66
2018-09-13T03:37:04.958Z,97.64
2018-09-13T03:39:33.788Z,97.79
2018-09-13T03:42:02.872Z,97.77
2018-09-13T03:44:31.519Z,96.96
2018-09-13T03:47:00.454Z,97.46
2018-09-13T03:49:29.370Z,96.68
2018-09-13T03:51:58.100Z,96.28
2018-09-13T03:54:27.091Z,97.00
2018-09-13T03:56:56.308Z,96.82
2018-09-13T03:59:25.208Z,97.16
2018-09-13T04:01:53.917Z,97.36
2018-09-13T04:04:22.760Z,98.35
2018-09-13T04:06:51.675Z,98.55
2018-09-13T04:09:20.492Z,98.85
2018-09-13T04:11:51.355Z,98.38
2018-09-13T04:14:21.083Z,98.01
2018-09-13T04:16:50.095Z,98.46
2018-09-13T04:19:19.133Z,98.29
2018-09-13T04:21:47.890Z,98.68
2018-09-13T04:24:17.029Z,98.41
2018-09-13T04:26:47.038Z,98.12
2018-09-13T04:29:16.240Z,97.92
2018-09-13T04:31:45.158Z,97.96
2018-09-13T04:34:13.979Z,98.88
2018-09-13T04:36:42.879Z,98.98
2018-09-13T04:39:12.085Z,98.90
2018-09-13T04:41:41.023Z,99.16
2018-09-13T04:44:10.508Z,99.18
2018-09-13T04:46:40.042Z,99.23
2018-09-13T04:49:09.461Z,99.13
2018-09-13T04:51:38.252Z,98.79
2018-09-13T04:54:07.489Z,98.59
2018-09-13T04:56:36.318Z,98.71
2018-09-13T04:59:05.401Z,98.73
2018-09-13T05:01:34.285Z,98.62
2018-09-13T05:04:03.081Z,98.60
2018-09-13T05:06:31.912Z,99.02
2018-09-13T05:09:01.078Z,99.19
2018-09-13T05:11:30.070Z,98.73
2018-09-13T05:13:59.571Z,99.23
2018-09-13T05:16:28.587Z,98.93
2018-09-13T05:18:57.769Z,98.45
2018-09-13T05:21:26.950Z,98.29
2018-09-13T05:23:56.175Z,98.32
2018-09-13T05:26:25.479Z,97.77
2018-09-13T05:28:54.668Z,97.68
2018-09-13T05:31:23.659Z,97.84
2018-09-13T05:33:52.310Z,97.78
2018-09-13T05:36:21.306Z,97.60
2018-09-13T05:38:50.638Z,97.59
2018-09-13T05:41:19.751Z,97.32
2018-09-13T05:43:48.745Z,96.86
2018-09-13T05:46:18.872Z,96.61
2018-09-13T05:48:47.567Z,96.54
2018-09-13T05:51:16.684Z,96.47
2018-09-13T05:53:46.079Z,96.34
2018-09-13T05:56:15.091Z,95.99
2018-09-13T05:58:44.004Z,95.26
2018-09-13T06:01:13.673Z,94.99
2018-09-13T06:03:43.685Z,95.58
2018-09-13T06:06:12.909Z,95.61
2018-09-13T06:08:41.835Z,94.82
2018-09-13T06:11:10.688Z,94.76
2018-09-13T06:13:39.902Z,94.20
2018-09-13T06:16:08.989Z,94.40
2018-09-13T06:18:39.119Z,94.60
2018-09-13T06:21:08.356Z,94.39
2018-09-13T06:23:38.144Z,93.87
2018-09-13T06:26:08.030Z,93.53
2018-09-13T06:28:36.848Z,93.33
2018-09-13T06:31:06.170Z,92.60
2018-09-13T06:33:35.036Z,92.70
2018-09-13T06:36:03.676Z,92.41
2018-09-13T06:38:32.689Z,91.67
2018-09-13T06:41:02.086Z,91.21
2018-09-13T06:43:31.314Z,90.99
2018-09-13T06:46:00.600Z,90.22
2018-09-13T06:48:29.968Z,89.32
2018-09-13T06:50:59.054Z,89.02
2018-09-13T06:53:28.221Z,88.68
2018-09-13T06:55:57.487Z,88.60
2018-09-13T06:58:26.700Z,87.27
2018-09-13T07:00:56.124Z,86.69
2018-09-13T07:03:25.076Z,85.81
2018-09-13T07:05:55.116Z,85.47
2018-09-13T07:08:24.576Z,84.60
2018-09-13T07:10:53.379Z,84.12
2018-09-13T07:13:22.125Z,83.96
2018-09-13T07:15:50.911Z,83.59
2018-09-13T07:18:19.736Z,82.17
2018-09-13T07:20:49.521Z,81.60
2018-09-13T07:23:18.979Z,81.29
2018-09-13T07:25:48.159Z,79.79
2018-09-13T07:28:16.925Z,78.97
2018-09-13T07:30:46.802Z,74.96
2018-09-13T07:33:15.739Z,68.74
2018-09-13T07:35:44.982Z,66.05
2018-09-13T07:38:14.174Z,65.93
2018-09-13T07:40:43.320Z,66.71
2018-09-13T07:43:12.646Z,67.69
2018-09-13T07:45:41.996Z,68.29
2018-09-13T07:48:11.024Z,69.30
2018-09-13T07:50:39.890Z,69.51
2018-09-13T07:53:09.526Z,68.90
2018-09-13T07:55:39.066Z,68.54
2018-09-13T07:58:07.873Z,66.52
2018-09-13T08:00:37.201Z,66.28
2018-09-13T08:03:06.260Z,66.43
2018-09-13T08:05:35.321Z,66.92
2018-09-13T08:08:04.814Z,68.28
2018-09-13T08:10:34.195Z,68.19
2018-09-13T08:13:03.856Z,67.06
2018-09-13T08:15:32.581Z,66.84
2018-09-13T08:18:02.020Z,66.86
2018-09-13T08:20:30.872Z,68.90
2018-09-13T08:23:00.299Z,68.27
2018-09-13T08:25:29.418Z,68.28
2018-09-13T08:27:58.229Z,69.67
2018-09-13T08:30:27.179Z,69.26
2018-09-13T08:32:56.102Z,69.32
2018-09-13T08:35:25.953Z,68.40
2018-09-13T08:37:55.419Z,68.26
2018-09-13T08:40:24.586Z,68.09
2018-09-13T08:42:53.293Z,67.18
2018-09-13T08:45:22.171Z,63.15
2018-09-13T08:47:51.110Z,62.32
2018-09-13T08:50:20.724Z,60.85
2018-09-13T08:52:49.902Z,57.94
2018-09-13T08:55:19.327Z,58.83
2018-09-13T08:57:48.222Z,58.54
2018-09-13T09:00:17.547Z,57.01
2018-09-13T09:02:46.556Z,54.55
2018-09-13T09:05:15.182Z,53.73
2018-09-13T09:07:44.290Z,51.06
2018-09-13T09:10:13.201Z,45.35
2018-09-13T09:12:42.005Z,42.78
2018-09-13T09:15:10.955Z,44.19
2018-09-13T09:17:40.095Z,42.99
2018-09-13T09:20:09.256Z,41.86
2018-09-13T09:22:38.512Z,43.00
2018-09-13T09:25:07.812Z,41.71
2018-09-13T09:27:36.720Z,43.32
2018-09-13T09:30:06.274Z,42.50
2018-09-13T09:32:35.176Z,44.36
2018-09-13T09:35:04.312Z,44.94
2018-09-13T09:37:33.165Z,46.47
2018-09-13T09:40:02.360Z,47.16
2018-09-13T09:42:31.353Z,48.60
2018-09-13T09:45:00.260Z,49.33
2018-09-13T09:47:29.091Z,51.03
2018-09-13T09:49:58.002Z,50.34
2018-09-13T09:52:27.451Z,51.46
2018-09-13T09:54:58.115Z,50.90
2018-09-13T09:57:27.668Z,52.01
2018-09-13T09:59:56.617Z,53.71
2018-09-13T10:02:26.397Z,53.88
2018-09-13T10:04:55.410Z,54.04
2018-09-13T10:07:24.915Z,53.72
2018-09-13T10:09:53.791Z,53.78
2018-09-13T10:12:22.876Z,54.41
2018-09-13T10:14:56.807Z,54.27
2018-09-13T10:18:34.590Z,54.43
2018-09-13T10:21:08.613Z,53.79
2018-09-13T10:23:42.764Z,52.91
2018-09-13T10:26:16.952Z,53.09
2018-09-13T10:28:50.911Z,51.67
2018-09-13T10:31:25.021Z,48.86
2018-09-13T10:33:59.486Z,43.30
2018-09-13T10:36:33.706Z,41.54
2018-09-13T10:39:07.442Z,40.15
2018-09-13T10:42:39.711Z,41.28
2018-09-13T10:45:14.170Z,42.81
2018-09-13T10:47:56.490Z,44.05
2018-09-13T10:50:24.955Z,45.29
2018-09-13T10:52:58.949Z,45.64
2018-09-13T10:55:29.777Z,47.36
2018-09-13T10:57:58.828Z,47.36
2018-09-13T11:00:28.064Z,47.48
2018-09-13T11:02:57.286Z,48.18
2018-09-13T11:05:26.428Z,47.74
2018-09-13T11:07:55.572Z,48.77
2018-09-13T11:10:24.739Z,49.22
2018-09-13T11:12:56.077Z,49.40
2018-09-13T11:15:30.876Z,50.17
2018-09-13T11:17:59.776Z,50.90
2018-09-13T11:20:28.788Z,50.91
2018-09-13T11:22:57.602Z,49.90
2018-09-13T11:25:26.349Z,48.54
2018-09-13T11:27:55.876Z,47.46
2018-09-13T11:30:26.937Z,46.14
2018-09-13T11:32:55.722Z,45.19
2018-09-13T11:35:25.893Z,43.03
2018-09-13T11:37:55.500Z,42.50
2018-09-13T11:40:24.497Z,37.61
2018-09-13T11:42:53.514Z,33.74
2018-09-13T11:45:22.735Z,30.27
2018-09-13T11:47:51.987Z,28.03
2018-09-13T11:50:21.133Z,25.49
2018-09-13T11:52:50.322Z,25.35
2018-09-13T11:55:19.497Z,26.97
2018-09-13T11:57:48.411Z,27.64
2018-09-13T12:00:18.110Z,28.59
2018-09-13T12:02:46.983Z,30.86
2018-09-13T12:05:15.903Z,31.89
2018-09-13T12:07:44.848Z,33.14
2018-09-13T12:10:13.984Z,33.62
2018-09-13T12:12:43.918Z,33.48
2018-09-13T12:15:12.753Z,34.12
2018-09-13T12:17:41.746Z,35.22
2018-09-13T12:20:10.823Z,36.13
2018-09-13T12:22:39.966Z,36.14
2018-09-13T12:25:09.382Z,37.14
2018-09-13T12:27:38.573Z,37.15
2018-09-13T12:30:08.231Z,37.88
2018-09-13T12:32:37.347Z,38.03
2018-09-13T12:35:06.856Z,38.72
2018-09-13T12:37:36.593Z,38.86
2018-09-13T12:40:06.518Z,40.35
2018-09-13T12:42:35.743Z,41.49
2018-09-13T12:45:05.048Z,41.48
2018-09-13T12:47:34.314Z,40.82
2018-09-13T12:50:03.804Z,39.90
2018-09-13T12:52:32.838Z,39.76
2018-09-13T12:55:01.608Z,39.93
2018-09-13T12:57:31.128Z,38.44
2018-09-13T13:00:06.661Z,38.01
2018-09-13T13:02:35.475Z,37.92
2018-09-13T13:05:04.622Z,38.34
2018-09-13T13:07:33.558Z,38.66
2018-09-13T13:10:02.339Z,38.43
2018-09-13T13:12:31.396Z,36.07
2018-09-13T13:15:00.691Z,33.68
2018-09-13T13:17:29.704Z,32.16
2018-09-13T13:19:59.282Z,28.05
2018-09-13T13:22:28.310Z,27.38
2018-09-13T13:24:57.104Z,28.41
2018-09-13T13:27:26.208Z,31.21
2018-09-13T13:29:54.966Z,32.24
2018-09-13T13:32:24.084Z,33.40
2018-09-13T13:34:53.608Z,34.31
2018-09-13T13:37:22.759Z,35.40
2018-09-13T13:39:51.857Z,35.49
2018-09-13T13:42:21.087Z,36.26
2018-09-13T13:44:50.573Z,36.37
2018-09-13T13:47:19.652Z,36.45
2018-09-13T13:49:48.608Z,36.17
2018-09-13T13:52:17.657Z,35.11
2018-09-13T13:54:46.512Z,37.08
2018-09-13T13:57:15.383Z,37.02
2018-09-13T13:59:44.394Z,36.47
2018-09-13T14:02:13.919Z,36.22
2018-09-13T14:04:43.093Z,35.66
2018-09-13T14:07:11.846Z,36.14
2018-09-13T14:09:40.838Z,36.13
2018-09-13T14:12:10.438Z,35.43
2018-09-13T14:14:39.602Z,34.89
2018-09-13T14:17:09.100Z,35.07
2018-09-13T14:19:38.411Z,34.84
2018-09-13T14:22:07.672Z,35.47
2018-09-13T14:24:36.842Z,35.99
2018-09-13T14:27:06.087Z,36.32
2018-09-13T14:29:36.353Z,37.14
2018-09-13T14:32:05.736Z,37.10
2018-09-13T14:34:35.462Z,39.41
2018-09-13T14:37:05.252Z,40.29
2018-09-13T14:39:34.132Z,41.40
2018-09-13T14:42:03.083Z,41.33
2018-09-13T14:44:31.794Z,41.76
2018-09-13T14:47:01.966Z,41.30
2018-09-13T14:49:30.995Z,41.37
2018-09-13T14:52:00.468Z,41.87
2018-09-13T14:54:29.637Z,42.45
2018-09-13T14:56:58.779Z,43.18
2018-09-13T14:59:27.893Z,43.31
2018-09-13T15:01:57.242Z,43.73
2018-09-13T15:04:26.629Z,43.46
2018-09-13T15:06:55.718Z,43.95
2018-09-13T15:09:24.456Z,43.50
2018-09-13T15:11:53.649Z,43.28
2018-09-13T15:14:23.359Z,43.58
2018-09-13T15:16:52.444Z,43.58
2018-09-13T15:19:21.693Z,43.58
2018-09-13T15:21:52.132Z,44.29
2018-09-13T15:24:21.264Z,43.87
2018-09-13T15:26:50.273Z,44.10
2018-09-13T15:29:19.222Z,44.50
2018-09-13T15:31:48.104Z,45.93
2018-09-13T15:34:17.223Z,46.78
2018-09-13T15:36:46.246Z,48.30
2018-09-13T15:39:15.168Z,49.20
2018-09-13T15:41:44.113Z,50.04
2018-09-13T15:44:13.021Z,51.44
2018-09-13T15:46:42.821Z,51.22
2018-09-13T15:49:13.425Z,52.35
2018-09-13T15:51:42.543Z,52.69
2018-09-13T15:54:11.848Z,51.49
2018-09-13T15:56:40.869Z,51.74
2018-09-13T15:59:10.118Z,49.76
2018-09-13T16:01:39.554Z,49.21
2018-09-13T16:04:08.339Z,49.80
2018-09-13T16:06:38.050Z,51.75
2018-09-13T16:09:08.658Z,53.33
2018-09-13T16:11:37.848Z,54.36
2018-09-13T16:14:07.740Z,54.12
2018-09-13T16:16:36.589Z,54.82
2018-09-13T16:19:06.063Z,55.06
2018-09-13T16:21:35.704Z,55.73
2018-09-13T16:24:04.634Z,57.82
2018-09-13T16:26:34.071Z,60.86
2018-09-13T16:29:02.954Z,61.92
2018-09-13T16:31:32.157Z,63.29
2018-09-13T16:34:01.314Z,63.93
2018-09-13T16:36:31.323Z,65.17
2018-09-13T16:39:08.613Z,67.26
2018-09-13T16:41:42.855Z,68.22
2018-09-13T16:44:17.549Z,70.85
2018-09-13T16:46:51.645Z,70.36
2018-09-13T16:49:20.929Z,72.17
2018-09-13T16:51:50.230Z,70.33
2018-09-13T16:54:19.464Z,70.31
2018-09-13T16:56:48.657Z,70.27
2018-09-13T16:59:17.885Z,70.07
2018-09-13T17:01:47.143Z,70.62
2018-09-13T17:04:16.403Z,70.54
2018-09-13T17:06:45.572Z,70.75
2018-09-13T17:09:14.482Z,71.36
2018-09-13T17:11:43.275Z,70.97
2018-09-13T17:14:12.277Z,70.50
2018-09-13T17:16:41.141Z,70.84
2018-09-13T17:19:10.229Z,72.76
2018-09-13T17:21:39.036Z,74.86
2018-09-13T17:24:08.261Z,74.23
2018-09-13T17:26:37.503Z,75.98
2018-09-13T17:29:06.623Z,75.78
2018-09-13T17:31:35.833Z,78.19
2018-09-13T17:34:05.065Z,78.86
2018-09-13T17:36:34.097Z,78.74
2018-09-13T17:39:03.762Z,79.42
2018-09-13T17:41:32.833Z,79.32
2018-09-13T17:44:01.920Z,79.27
2018-09-13T17:46:31.149Z,78.95
2018-09-13T17:49:00.297Z,80.64
2018-09-13T17:51:29.404Z,80.87
2018-09-13T17:53:59.173Z,82.07
2018-09-13T17:56:28.102Z,81.58
2018-09-13T17:58:57.420Z,82.80
2018-09-13T18:01:26.535Z,82.47
2018-09-13T18:03:55.648Z,83.10
2018-09-13T18:06:24.695Z,84.93
2018-09-13T18:08:54.163Z,85.99
2018-09-13T18:11:23.124Z,86.16
2018-09-13T18:13:52.205Z,87.10
2018-09-13T18:16:21.019Z,86.55
2018-09-13T18:18:50.229Z,85.84
2018-09-13T18:21:19.425Z,86.53
2018-09-13T18:23:48.624Z,89.02
2018-09-13T18:26:17.785Z,88.65
2018-09-13T18:28:46.918Z,88.62
2018-09-13T18:31:16.423Z,88.85
2018-09-13T18:33:45.514Z,89.51
2018-09-13T18:36:14.680Z,90.27
2018-09-13T18:38:43.988Z,90.06
2018-09-13T18:41:13.141Z,91.77
2018-09-13T18:43:42.836Z,91.68
2018-09-13T18:46:12.575Z,91.25
2018-09-13T18:48:41.491Z,91.53
2018-09-13T18:51:10.989Z,92.64
2018-09-13T18:53:40.555Z,93.01
2018-09-13T18:56:09.475Z,93.23
2018-09-13T18:58:38.522Z,93.63
2018-09-13T19:01:07.605Z,93.81
2018-09-13T19:03:36.932Z,94.06
2018-09-13T19:06:06.414Z,94.30
2018-09-13T19:08:35.557Z,92.83
2018-09-13T19:11:04.810Z,92.80
2018-09-13T19:13:33.981Z,92.31
2018-09-13T19:16:03.409Z,93.28
2018-09-13T19:18:32.464Z,92.55
2018-09-13T19:21:01.704Z,92.07
2018-09-13T19:23:30.926Z,91.71
2018-09-13T19:26:00.000Z,92.25
2018-09-13T19:28:29.067Z,94.65
2018-09-13T19:30:58.613Z,95.43
2018-09-13T19:33:27.605Z,94.11
2018-09-13T19:35:56.581Z,94.60
2018-09-13T19:38:25.801Z,94.76
2018-09-13T19:40:54.665Z,95.40
2018-09-13T19:43:23.834Z,95.96
2018-09-13T19:45:52.847Z,96.80
2018-09-13T19:48:22.076Z,96.78
2018-09-13T19:50:51.514Z,95.50
2018-09-13T19:53:21.483Z,94.63
2018-09-13T19:55:50.796Z,95.01
2018-09-13T19:58:19.952Z,95.70
2018-09-13T20:00:50.432Z,95.68
2018-09-13T20:03:19.271Z,96.15
2018-09-13T20:05:48.729Z,96.50
2018-09-13T20:08:17.885Z,97.11
2018-09-13T20:10:46.860Z,97.41
2018-09-13T20:13:16.330Z,97.74
2018-09-13T20:15:46.051Z,97.51
2018-09-13T20:18:15.867Z,97.59
2018-09-13T20:20:45.266Z,97.45
2018-09-13T20:23:14.132Z,97.82
2018-09-13T20:25:43.226Z,97.55
2018-09-13T20:28:12.350Z,98.04
2018-09-13T20:30:42.030Z,98.01
2018-09-13T20:33:11.045Z,97.72
2018-09-13T20:35:40.236Z,97.12
2018-09-13T20:38:09.309Z,97.50
2018-09-13T20:40:38.566Z,97.36
2018-09-13T20:43:07.875Z,97.38
2018-09-13T20:45:36.886Z,97.53
2018-09-13T20:48:05.601Z,97.96
2018-09-13T20:50:34.617Z,98.57
2018-09-13T20:53:04.406Z,98.75
2018-09-13T20:55:33.980Z,99.65
2018-09-13T20:58:03.270Z,99.77
2018-09-13T21:00:32.548Z,99.93
2018-09-13T21:03:01.706Z,100.00
2018-09-13T21:05:30.638Z,100.00
2018-09-13T21:07:59.380Z,100.00
2018-09-13T21:10:28.320Z,100.00
2018-09-13T21:12:58.151Z,100.00
2018-09-13T21:15:27.894Z,100.00
2018-09-13T21:17:56.912Z,99.32
2018-09-13T21:20:26.285Z,98.90
2018-09-13T21:22:55.020Z,99.33
2018-09-13T21:25:23.904Z,100.00
2018-09-13T21:27:53.364Z,100.00
2018-09-13T21:30:22.345Z,99.75
2018-09-13T21:32:51.304Z,98.89
2018-09-13T21:35:20.796Z,99.20
2018-09-13T21:37:49.790Z,99.75
2018-09-13T21:40:19.394Z,99.93
2018-09-13T21:42:48.300Z,100.00
2018-09-13T21:45:17.145Z,100.00
2018-09-13T21:47:46.739Z,100.00
2018-09-13T21:50:15.459Z,100.00
2018-09-13T21:52:44.241Z,100.00
2018-09-13T21:55:13.041Z,100.00
2018-09-13T21:57:42.615Z,100.00
2018-09-13T22:00:12.787Z,100.00
2018-09-13T22:02:42.021Z,100.00
2018-09-13T22:05:11.495Z,100.00
2018-09-13T22:07:40.696Z,100.00
2018-09-13T22:10:09.645Z,100.00
2018-09-13T22:12:38.481Z,100.00
2018-09-13T22:15:08.104Z,100.00
2018-09-13T22:17:37.947Z,100.00
2018-09-13T22:20:07.561Z,100.00
2018-09-13T22:22:37.111Z,100.00
2018-09-13T22:25:36.855Z,100.00
2018-09-13T22:28:05.876Z,100.00
2018-09-13T22:30:34.735Z,100.00
2018-09-13T22:33:04.396Z,100.00
2018-09-13T22:35:33.095Z,100.00
2018-09-13T22:38:02.299Z,100.00
2018-09-13T22:40:31.711Z,100.00
2018-09-13T22:43:00.716Z,100.00
2018-09-13T22:45:30.211Z,100.00
2018-09-13T22:47:59.396Z,100.00
2018-09-13T22:50:28.386Z,100.00
2018-09-13T22:52:58.320Z,100.00
2018-09-13T22:55:28.786Z,100.00
2018-09-13T22:57:57.437Z,100.00
2018-09-13T23:00:26.288Z,100.00
2018-09-13T23:02:55.147Z,99.89
2018-09-13T23:05:24.771Z,99.74
2018-09-13T23:07:54.046Z,100.00
2018-09-13T23:10:23.229Z,100.00
2018-09-13T23:12:52.037Z,100.00
2018-09-13T23:15:21.768Z,100.00
2018-09-13T23:17:50.598Z,100.00
2018-09-13T23:20:20.138Z,100.00
2018-09-13T23:22:49.520Z,100.00
2018-09-13T23:25:19.197Z,100.00
2018-09-13T23:27:47.950Z,100.00
2018-09-13T23:30:16.907Z,100.00
2018-09-13T23:32:46.157Z,100.00
2018-09-13T23:35:15.535Z,100.00
2018-09-13T23:37:44.621Z,100.00
2018-09-13T23:40:13.677Z,100.00
2018-09-13T23:42:42.227Z,100.00
2018-09-13T23:45:11.615Z,100.00
2018-09-13T23:47:41.585Z,100.00
2018-09-13T23:50:10.795Z,100.00
2018-09-13T23:52:39.590Z,100.00
2018-09-13T23:55:08.429Z,100.00
2018-09-13T23:57:37.342Z,100.00
